createdAt,value
2019-03-18T00:02:47.515Z,1001.03
2019-03-18T00:07:46.514Z,1001.06
2019-03-18T00:12:46.592Z,1001.14
2019-03-18T00:17:46.510Z,1001.16
2019-03-18T00:22:45.738Z,1001.16
2019-03-18T00:27:46.507Z,1001.19
2019-03-18T00:32:45.856Z,1001.16
2019-03-18T00:37:45.478Z,1001.21
2019-03-18T00:42:45.479Z,1001.27
2019-03-18T00:47:45.497Z,1001.34
2019-03-18T00:52:45.530Z,1001.34
2019-03-18T00:57:46.590Z,1001.32
2019-03-18T01:02:45.525Z,1001.39
2019-03-18T01:07:44.856Z,1001.39
2019-03-18T01:12:44.450Z,1001.34
2019-03-18T01:17:43.740Z,1001.39
2019-03-18T01:22:42.875Z,1001.42
2019-03-18T01:27:42.567Z,1001.29
2019-03-18T01:32:41.721Z,1001.54
2019-03-18T01:37:41.556Z,1001.60
2019-03-18T01:42:41.517Z,1001.60
2019-03-18T01:47:41.636Z,1001.63
2019-03-18T01:52:43.387Z,1001.55
2019-03-18T01:57:41.517Z,1001.43
2019-03-18T02:02:41.564Z,1001.48
2019-03-18T02:07:41.548Z,1001.56
2019-03-18T02:12:41.624Z,1001.59
2019-03-18T02:17:42.545Z,1001.59
2019-03-18T02:22:42.693Z,1001.64
2019-03-18T02:27:42.566Z,1001.62
2019-03-18T02:32:42.557Z,1001.57
2019-03-18T02:37:41.727Z,1001.52
2019-03-18T02:42:41.552Z,1001.50
2019-03-18T02:47:41.664Z,1001.56
2019-03-18T02:52:42.787Z,1001.48
2019-03-18T02:57:42.564Z,1001.48
2019-03-18T03:02:41.860Z,1001.46
2019-03-18T03:07:41.799Z,1001.75
2019-03-18T03:12:41.675Z,1001.88
2019-03-18T03:17:40.796Z,1001.93
2019-03-18T03:22:40.562Z,1002.03
2019-03-18T03:27:40.631Z,1002.14
2019-03-18T03:32:39.747Z,1002.15
2019-03-18T03:37:38.715Z,1002.22
2019-03-18T03:42:37.618Z,1002.22
2019-03-18T03:47:37.046Z,1002.20
2019-03-18T03:52:35.961Z,1002.27
2019-03-18T03:57:34.974Z,1002.35
2019-03-18T04:02:34.717Z,1002.42
2019-03-18T04:07:33.622Z,1002.45
2019-03-18T04:12:32.662Z,1002.42
2019-03-18T04:17:32.831Z,1002.44
2019-03-18T04:22:32.633Z,1002.61
2019-03-18T04:27:32.625Z,1002.61
2019-03-18T04:32:32.687Z,1002.63
2019-03-18T04:37:31.570Z,1002.69
2019-03-18T04:42:31.628Z,1002.74
2019-03-18T04:47:30.885Z,1002.82
2019-03-18T04:52:30.709Z,1002.80
2019-03-18T04:57:30.631Z,1003.01
2019-03-18T05:02:30.738Z,1003.09
2019-03-18T05:07:30.652Z,1003.14
2019-03-18T05:12:29.743Z,1003.12
2019-03-18T05:17:29.658Z,1003.20
2019-03-18T05:22:28.705Z,1003.28
2019-03-18T05:27:27.852Z,1003.31
2019-03-18T05:32:27.643Z,1003.36
2019-03-18T05:44:52.935Z,1003.31
2019-03-18T05:52:27.696Z,1003.69
2019-03-18T05:57:27.743Z,1003.74
2019-03-18T06:02:27.777Z,1003.84
2019-03-18T06:07:27.058Z,1003.87
2019-03-18T06:12:26.712Z,1003.84
2019-03-18T06:17:26.697Z,1004.00
2019-03-18T06:22:25.881Z,1004.11
2019-03-18T06:27:25.668Z,1004.13
2019-03-18T06:32:24.724Z,1004.24
2019-03-18T06:37:24.725Z,1004.29
2019-03-18T06:42:24.725Z,1004.45
2019-03-18T06:47:24.755Z,1004.51
2019-03-18T06:52:24.741Z,1004.55
2019-03-18T06:57:24.716Z,1004.57
2019-03-18T07:02:24.720Z,1004.79
2019-03-18T07:07:25.738Z,1004.76
2019-03-18T07:12:24.960Z,1004.93
2019-03-18T07:17:23.827Z,1004.91
2019-03-18T07:22:23.698Z,1005.02
2019-03-18T07:27:22.881Z,1005.10
2019-03-18T07:32:22.777Z,1005.14
2019-03-18T07:37:21.846Z,1005.33
2019-03-18T07:42:20.780Z,1005.38
2019-03-18T07:47:21.701Z,1005.62
2019-03-18T07:52:22.020Z,1005.53
2019-03-18T07:57:20.811Z,1005.60
2019-03-18T08:02:20.786Z,1005.69
2019-03-18T08:07:19.777Z,1005.60
2019-03-18T08:12:19.748Z,1005.65
2019-03-18T08:17:19.743Z,1005.75
2019-03-18T08:22:19.768Z,1005.88
2019-03-18T08:27:18.873Z,1005.99
2019-03-18T08:32:18.095Z,1006.07
2019-03-18T08:37:17.036Z,1006.07
2019-03-18T08:42:16.740Z,1006.23
2019-03-18T08:47:16.870Z,1006.26
2019-03-18T08:52:15.751Z,1006.26
2019-03-18T08:57:14.788Z,1006.38
2019-03-18T09:02:13.864Z,1006.38
2019-03-18T09:07:13.802Z,1006.43
2019-03-18T09:12:13.754Z,1006.51
2019-03-18T09:17:14.775Z,1006.57
2019-03-18T09:22:14.822Z,1006.63
2019-03-18T09:27:14.807Z,1006.62
2019-03-18T09:32:14.802Z,1006.75
2019-03-18T09:37:14.828Z,1006.79
2019-03-18T09:42:13.834Z,1006.78
2019-03-18T09:47:13.778Z,1006.83
2019-03-18T09:52:13.786Z,1006.85
2019-03-18T09:57:25.133Z,1006.90
2019-03-18T10:02:11.787Z,1006.86
2019-03-18T10:07:11.817Z,1007.03
2019-03-18T10:12:11.813Z,1007.03
2019-03-18T10:17:11.100Z,1007.09
2019-03-18T10:22:11.817Z,1007.08
2019-03-18T10:27:10.911Z,1007.22
2019-03-18T10:32:11.804Z,1007.17
2019-03-18T10:37:10.839Z,1007.07
2019-03-18T10:42:10.135Z,1007.07
2019-03-18T10:47:09.856Z,1007.23
2019-03-18T10:52:08.877Z,1007.25
2019-03-18T10:57:08.906Z,1007.27
2019-03-18T11:02:09.895Z,1007.49
2019-03-18T11:07:09.831Z,1007.53
2019-03-18T11:12:09.097Z,1007.44
2019-03-18T11:22:07.814Z,1007.54
2019-03-18T11:27:07.881Z,1007.49
2019-03-18T11:32:07.930Z,1007.50
2019-03-18T11:37:07.846Z,1007.50
2019-03-18T11:42:07.082Z,1007.58
2019-03-18T11:47:07.836Z,1007.49
2019-03-18T11:52:06.844Z,1007.57
2019-03-18T11:57:06.887Z,1007.87
2019-03-18T12:02:06.134Z,1008.18
2019-03-18T12:07:05.833Z,1008.14
2019-03-18T12:12:06.846Z,1008.34
2019-03-18T12:17:05.867Z,1008.36
2019-03-18T12:22:05.871Z,1008.01
2019-03-18T12:27:05.887Z,1008.00
2019-03-18T12:32:05.141Z,1007.97
2019-03-18T12:37:05.052Z,1007.97
2019-03-18T12:42:05.921Z,1007.94
2019-03-18T12:47:05.854Z,1007.99
2019-03-18T12:52:05.912Z,1007.96
2019-03-18T12:57:04.869Z,1007.90
2019-03-18T13:02:05.051Z,1008.01
2019-03-18T13:07:04.866Z,1007.99
2019-03-18T13:12:05.924Z,1007.86
2019-03-18T13:17:04.828Z,1007.90
2019-03-18T13:22:04.890Z,1007.83
2019-03-18T13:27:04.318Z,1007.80
2019-03-18T13:32:05.142Z,1007.85
2019-03-18T13:42:04.990Z,1008.02
2019-03-18T13:47:04.315Z,1007.97
2019-03-18T13:52:04.898Z,1008.02
2019-03-18T13:57:03.958Z,1008.19
2019-03-18T14:02:03.876Z,1008.10
2019-03-18T14:07:05.065Z,1008.14
2019-03-18T14:12:04.927Z,1008.21
2019-03-18T14:17:04.883Z,1008.14
2019-03-18T14:22:03.914Z,1008.07
2019-03-18T14:27:04.010Z,1007.98
2019-03-18T14:32:04.876Z,1008.07
2019-03-18T14:37:04.197Z,1008.15
2019-03-18T14:42:03.934Z,1008.18
2019-03-18T14:47:04.905Z,1008.27
2019-03-18T14:52:04.944Z,1008.33
2019-03-18T14:57:04.915Z,1008.44
2019-03-18T15:02:04.238Z,1008.50
2019-03-18T15:12:02.930Z,1008.76
2019-03-18T15:17:01.857Z,1008.94
2019-03-18T15:22:01.288Z,1008.95
2019-03-18T15:27:01.163Z,1009.04
2019-03-18T15:32:01.415Z,1009.05
2019-03-18T15:37:00.873Z,1009.07
2019-03-18T15:42:01.195Z,1009.14
2019-03-18T15:52:10.447Z,1009.30
2019-03-18T15:57:01.272Z,1009.41
2019-03-18T16:02:01.064Z,1009.40
2019-03-18T16:11:58.987Z,1009.42
2019-03-18T16:17:02.244Z,1009.48
2019-03-18T16:21:57.037Z,1009.53
2019-03-18T16:26:55.892Z,1009.55
2019-03-18T16:31:55.080Z,1009.74
2019-03-18T16:36:55.915Z,1009.77
2019-03-18T16:41:55.687Z,1009.79
2019-03-18T16:46:54.883Z,1009.81
2019-03-18T16:51:54.128Z,1009.96
2019-03-18T16:56:54.205Z,1010.00
2019-03-18T17:01:52.988Z,1010.13
2019-03-18T17:11:52.164Z,1010.17
2019-03-18T17:16:51.927Z,1010.16
2019-03-18T17:21:51.018Z,1010.32
2019-03-18T17:26:51.300Z,1010.23
2019-03-18T17:31:51.059Z,1010.27
2019-03-18T17:36:51.629Z,1010.45
2019-03-18T17:41:51.260Z,1010.59
2019-03-18T17:46:50.195Z,1010.71
2019-03-18T17:51:51.208Z,1010.73
2019-03-18T17:56:49.968Z,1010.81
2019-03-18T18:01:50.047Z,1010.91
2019-03-18T18:06:48.959Z,1010.94
2019-03-18T18:11:48.099Z,1011.02
2019-03-18T18:16:46.984Z,1011.04
2019-03-18T18:21:46.984Z,1011.11
2019-03-18T18:26:47.028Z,1011.21
2019-03-18T18:31:46.215Z,1011.18
2019-03-18T18:36:45.252Z,1011.34
2019-03-18T18:41:44.961Z,1011.28
2019-03-18T18:46:43.996Z,1011.35
2019-03-18T18:51:43.138Z,1011.47
2019-03-18T18:56:44.049Z,1011.49
2019-03-18T19:01:43.973Z,1011.53
2019-03-18T19:06:45.020Z,1011.55
2019-03-18T19:11:43.990Z,1011.49
2019-03-18T19:26:43.098Z,1011.88
2019-03-18T19:31:41.965Z,1011.85
2019-03-18T19:36:41.299Z,1011.96
2019-03-18T19:41:40.334Z,1012.00
2019-03-18T19:46:40.041Z,1012.08
2019-03-18T19:51:41.033Z,1012.13
2019-03-18T19:56:41.038Z,1012.18
2019-03-18T20:01:41.075Z,1012.18
2019-03-18T20:06:40.066Z,1012.31
2019-03-18T20:11:40.041Z,1012.36
2019-03-18T20:16:40.382Z,1012.43
2019-03-18T20:21:41.061Z,1012.53
2019-03-18T20:26:40.246Z,1012.63
2019-03-18T20:31:40.347Z,1012.75
2019-03-18T20:36:40.521Z,1012.77
2019-03-18T20:41:40.015Z,1012.90
2019-03-18T20:46:40.088Z,1012.85
2019-03-18T20:51:39.297Z,1012.94
2019-03-18T20:56:38.546Z,1012.99
2019-03-18T21:01:38.116Z,1012.97
2019-03-18T21:06:38.067Z,1013.07
2019-03-18T21:11:38.339Z,1013.14
2019-03-18T21:16:38.128Z,1013.25
2019-03-18T21:21:38.052Z,1013.27
2019-03-18T21:26:37.174Z,1013.40
2019-03-18T21:31:37.077Z,1013.43
2019-03-18T21:36:38.583Z,1013.35
2019-03-18T21:41:38.038Z,1013.62
2019-03-18T21:46:37.521Z,1013.67
2019-03-18T21:51:38.379Z,1013.82
2019-03-18T21:56:37.190Z,1013.73
2019-03-18T22:01:36.089Z,1013.85
2019-03-18T22:06:35.044Z,1013.70
2019-03-18T22:11:35.062Z,1013.71
2019-03-18T22:16:34.006Z,1013.77
2019-03-18T22:21:33.649Z,1013.94
2019-03-18T22:26:34.199Z,1013.90
2019-03-18T22:31:35.493Z,1013.86
2019-03-18T22:36:35.215Z,1013.90
2019-03-18T22:41:34.509Z,1013.87
2019-03-18T22:46:34.251Z,1013.90
2019-03-18T22:51:34.126Z,1013.99
2019-03-18T22:56:33.068Z,1013.94
2019-03-18T23:01:33.143Z,1014.14
2019-03-18T23:06:32.493Z,1014.18
2019-03-18T23:11:31.323Z,1014.16
2019-03-18T23:16:30.522Z,1014.16
2019-03-18T23:21:29.340Z,1014.29
2019-03-18T23:26:29.139Z,1014.27
2019-03-18T23:31:29.223Z,1014.21
2019-03-18T23:36:28.158Z,1014.25
2019-03-18T23:41:27.094Z,1014.35
2019-03-18T23:46:27.172Z,1014.33
2019-03-18T23:51:26.480Z,1014.38
2019-03-18T23:56:26.114Z,1014.40
